createdAt,value
2023-05-05T00:00:27.045Z,38.52
2023-05-05T00:01:27.054Z,38.56
2023-05-05T00:02:27.103Z,38.52
2023-05-05T00:03:27.169Z,38.55
2023-05-05T00:04:27.065Z,38.54
2023-05-05T00:05:27.083Z,38.57
2023-05-05T00:06:27.089Z,38.58
2023-05-05T00:07:27.093Z,38.55
2023-05-05T00:08:27.107Z,38.58
2023-05-05T00:09:27.110Z,38.54
2023-05-05T00:10:27.059Z,38.60
2023-05-05T00:11:27.105Z,38.55
2023-05-05T00:12:27.068Z,38.58
2023-05-05T00:13:27.094Z,38.59
2023-05-05T00:14:27.092Z,38.60
2023-05-05T00:15:27.062Z,38.61
2023-05-05T00:16:27.111Z,38.58
2023-05-05T00:17:27.140Z,38.62
2023-05-05T00:18:27.107Z,38.56
2023-05-05T00:19:27.107Z,38.58
2023-05-05T00:20:27.084Z,38.60
2023-05-05T00:21:27.079Z,38.58
2023-05-05T00:22:27.143Z,38.62
2023-05-05T00:23:27.109Z,38.61
2023-05-05T00:24:27.098Z,38.61
2023-05-05T00:25:27.128Z,38.67
2023-05-05T00:26:27.125Z,38.60
2023-05-05T00:27:27.157Z,38.59
2023-05-05T00:28:27.146Z,38.64
2023-05-05T00:29:27.115Z,38.58
2023-05-05T00:30:27.163Z,38.59
2023-05-05T00:31:27.211Z,38.60
2023-05-05T00:32:27.202Z,38.56
2023-05-05T00:33:27.177Z,38.62
2023-05-05T00:34:27.184Z,38.62
2023-05-05T00:35:27.188Z,38.58
2023-05-05T00:36:27.171Z,38.60
2023-05-05T00:37:27.209Z,38.59
2023-05-05T00:38:27.159Z,38.65
2023-05-05T00:39:27.206Z,38.64
2023-05-05T00:40:27.186Z,38.59
2023-05-05T00:41:27.213Z,38.61
2023-05-05T00:42:27.260Z,38.61
2023-05-05T00:43:27.191Z,38.62
2023-05-05T00:44:27.184Z,38.60
2023-05-05T00:45:27.224Z,38.56
2023-05-05T00:46:27.337Z,38.59
2023-05-05T00:47:27.274Z,38.64
2023-05-05T00:48:27.224Z,38.64
2023-05-05T00:49:27.293Z,38.60
2023-05-05T00:50:27.273Z,38.64
2023-05-05T00:51:27.263Z,38.62
2023-05-05T00:52:27.271Z,38.60
2023-05-05T00:53:27.292Z,38.63
2023-05-05T00:54:27.282Z,38.66
2023-05-05T00:55:27.302Z,38.59
2023-05-05T00:56:27.349Z,38.62
2023-05-05T00:57:27.279Z,38.66
2023-05-05T00:58:27.267Z,38.66
2023-05-05T00:59:27.286Z,38.67
2023-05-05T01:00:27.306Z,38.67
2023-05-05T01:01:27.416Z,38.63
2023-05-05T01:02:28.278Z,38.67
2023-05-05T01:03:27.403Z,38.65
2023-05-05T01:04:27.335Z,38.65
2023-05-05T01:05:27.332Z,38.63
2023-05-05T01:06:27.349Z,38.63
2023-05-05T01:07:27.333Z,38.65
2023-05-05T01:08:27.347Z,38.62
2023-05-05T01:09:27.348Z,38.71
2023-05-05T01:10:27.525Z,38.66
2023-05-05T01:11:27.381Z,38.67
2023-05-05T01:12:27.350Z,38.66
2023-05-05T01:13:27.366Z,38.65
2023-05-05T01:14:27.381Z,38.67
2023-05-05T01:15:27.365Z,38.63
2023-05-05T01:16:27.436Z,38.66
2023-05-05T01:17:27.443Z,38.65
2023-05-05T01:18:27.400Z,38.66
2023-05-05T01:19:27.401Z,38.66
2023-05-05T01:20:27.425Z,38.67
2023-05-05T01:21:27.451Z,38.70
2023-05-05T01:22:27.461Z,38.69
2023-05-05T01:23:27.448Z,38.67
2023-05-05T01:24:27.461Z,38.72
2023-05-05T01:25:27.471Z,38.71
2023-05-05T01:26:27.480Z,38.69
2023-05-05T01:27:27.507Z,38.66
2023-05-05T01:28:27.488Z,38.72
2023-05-05T01:29:27.502Z,38.70
2023-05-05T01:30:27.497Z,38.63
2023-05-05T01:31:27.512Z,38.67
2023-05-05T01:32:27.525Z,38.67
2023-05-05T01:33:27.524Z,38.69
2023-05-05T01:34:27.528Z,38.67
2023-05-05T01:35:27.550Z,38.71
2023-05-05T01:36:27.556Z,38.70
2023-05-05T01:37:27.609Z,38.67
2023-05-05T01:38:27.617Z,38.67
2023-05-05T01:39:27.604Z,38.73
2023-05-05T01:40:27.614Z,38.69
2023-05-05T01:41:27.605Z,38.67
2023-05-05T01:42:27.627Z,38.70
2023-05-05T01:43:27.634Z,38.65
2023-05-05T01:44:27.666Z,38.71
2023-05-05T01:45:27.705Z,38.71
2023-05-05T01:46:27.672Z,38.77
2023-05-05T01:47:27.713Z,38.70
2023-05-05T01:48:27.690Z,38.75
2023-05-05T01:49:27.672Z,38.74
2023-05-05T01:50:27.708Z,38.70
2023-05-05T01:51:27.744Z,38.75
2023-05-05T01:52:27.719Z,38.75
2023-05-05T01:53:27.753Z,38.73
2023-05-05T01:54:27.757Z,38.71
2023-05-05T01:55:27.788Z,38.71
2023-05-05T01:56:27.799Z,38.71
2023-05-05T01:57:27.788Z,38.71
2023-05-05T01:58:27.795Z,38.71
2023-05-05T01:59:27.801Z,38.68
2023-05-05T02:00:27.833Z,38.70
2023-05-05T02:01:27.893Z,38.78
2023-05-05T02:02:28.437Z,38.73
2023-05-05T02:03:27.905Z,38.74
2023-05-05T02:04:27.873Z,38.71
2023-05-05T02:05:27.926Z,38.73
2023-05-05T02:06:27.923Z,38.74
2023-05-05T02:07:27.950Z,38.71
2023-05-05T02:08:27.932Z,38.73
2023-05-05T02:09:27.948Z,38.71
2023-05-05T02:10:27.987Z,38.71
2023-05-05T02:11:27.993Z,38.74
2023-05-05T02:12:27.998Z,38.71
2023-05-05T02:13:28.039Z,38.76
2023-05-05T02:14:28.006Z,38.74
2023-05-05T02:15:28.029Z,38.73
2023-05-05T02:16:28.056Z,38.71
2023-05-05T02:17:28.359Z,38.73
2023-05-05T02:18:28.068Z,38.74
2023-05-05T02:19:28.087Z,38.70
2023-05-05T02:20:28.116Z,38.73
2023-05-05T02:21:28.128Z,38.74
2023-05-05T02:22:28.136Z,38.73
2023-05-05T02:23:28.175Z,38.70
2023-05-05T02:24:28.208Z,38.71
2023-05-05T02:25:28.199Z,38.77
2023-05-05T02:26:28.216Z,38.75
2023-05-05T02:27:28.237Z,38.77
2023-05-05T02:28:28.349Z,38.77
2023-05-05T02:29:28.277Z,38.74
2023-05-05T02:30:28.291Z,38.77
2023-05-05T02:31:28.367Z,38.74
2023-05-05T02:32:28.365Z,38.75
2023-05-05T02:33:28.398Z,38.77
2023-05-05T02:34:28.425Z,38.78
2023-05-05T02:35:28.459Z,38.75
2023-05-05T02:36:28.485Z,38.76
2023-05-05T02:37:28.465Z,38.75
2023-05-05T02:38:28.829Z,38.73
2023-05-05T02:39:28.524Z,38.80
2023-05-05T02:40:28.558Z,38.77
2023-05-05T02:41:28.571Z,38.78
2023-05-05T02:42:28.605Z,38.77
2023-05-05T02:43:28.617Z,38.77
2023-05-05T02:44:28.656Z,38.75
2023-05-05T02:45:28.664Z,38.80
2023-05-05T02:46:28.745Z,38.78
2023-05-05T02:47:28.763Z,38.75
2023-05-05T02:48:28.856Z,38.78
2023-05-05T02:49:28.779Z,38.78
2023-05-05T02:50:28.783Z,38.77
2023-05-05T02:51:28.853Z,38.81
2023-05-05T02:52:28.851Z,38.78
2023-05-05T02:53:28.884Z,38.75
2023-05-05T02:54:28.946Z,38.78
2023-05-05T02:55:28.973Z,38.80
2023-05-05T02:56:28.984Z,38.80
2023-05-05T02:57:28.993Z,38.80
2023-05-05T02:58:29.056Z,38.77
2023-05-05T02:59:29.050Z,38.78
2023-05-05T03:00:29.085Z,38.74
2023-05-05T03:01:29.197Z,38.80
2023-05-05T03:02:29.280Z,38.82
2023-05-05T03:03:29.429Z,38.74
2023-05-05T03:04:29.256Z,38.79
2023-05-05T03:05:29.244Z,38.79
2023-05-05T03:06:29.256Z,38.78
2023-05-05T03:07:29.298Z,38.79
2023-05-05T03:08:29.343Z,38.76
2023-05-05T03:09:29.381Z,38.82
2023-05-05T03:10:29.391Z,38.82
2023-05-05T03:11:29.395Z,38.76
2023-05-05T03:12:29.412Z,38.78
2023-05-05T03:13:29.451Z,38.81
2023-05-05T03:14:32.042Z,38.84
2023-05-05T03:15:29.483Z,38.81
2023-05-05T03:16:29.505Z,38.78
2023-05-05T03:17:29.457Z,38.81
2023-05-05T03:18:29.417Z,38.81
2023-05-05T03:19:29.428Z,38.82
2023-05-05T03:20:29.377Z,38.84
2023-05-05T03:21:29.404Z,38.84
2023-05-05T03:22:29.383Z,38.81
2023-05-05T03:23:29.411Z,38.79
2023-05-05T03:24:29.383Z,38.79
2023-05-05T03:25:29.394Z,38.81
2023-05-05T03:26:29.345Z,38.82
2023-05-05T03:27:29.407Z,38.81
2023-05-05T03:28:29.361Z,38.81
2023-05-05T03:29:29.326Z,38.79
2023-05-05T03:30:29.337Z,38.79
2023-05-05T03:31:29.488Z,38.79
2023-05-05T03:32:29.341Z,38.79
2023-05-05T03:33:29.344Z,38.85
2023-05-05T03:34:29.304Z,38.81
2023-05-05T03:35:29.367Z,38.83
2023-05-05T03:36:29.613Z,38.78
2023-05-05T03:37:29.284Z,38.84
2023-05-05T03:38:29.272Z,38.83
2023-05-05T03:39:29.238Z,38.80
2023-05-05T03:40:40.468Z,38.83
2023-05-05T03:41:30.241Z,38.81
2023-05-05T03:42:29.284Z,38.82
2023-05-05T03:43:29.262Z,38.82
2023-05-05T03:44:29.223Z,38.82
2023-05-05T03:45:29.216Z,38.84
2023-05-05T03:46:29.229Z,38.82
2023-05-05T03:47:29.229Z,38.86
2023-05-05T03:48:29.191Z,38.80
2023-05-05T03:49:29.207Z,38.83
2023-05-05T03:50:29.190Z,38.86
2023-05-05T03:51:29.172Z,38.82
2023-05-05T03:52:29.168Z,38.85
2023-05-05T03:53:29.149Z,38.82
2023-05-05T03:54:29.154Z,38.80
2023-05-05T03:55:29.160Z,38.79
2023-05-05T03:56:29.128Z,38.86
2023-05-05T03:57:29.099Z,38.85
2023-05-05T03:58:29.112Z,38.82
2023-05-05T03:59:29.077Z,38.84
2023-05-05T04:00:29.125Z,38.83
2023-05-05T04:01:29.123Z,38.83
2023-05-05T04:02:29.241Z,38.79
2023-05-05T04:03:29.232Z,38.82
2023-05-05T04:04:29.330Z,38.85
2023-05-05T04:05:29.276Z,38.82
2023-05-05T04:06:29.273Z,38.82
2023-05-05T04:07:29.275Z,38.82
2023-05-05T04:08:29.428Z,38.82
2023-05-05T04:09:29.337Z,38.86
2023-05-05T04:10:29.345Z,38.82
2023-05-05T04:11:29.364Z,38.85
2023-05-05T04:12:29.421Z,38.86
2023-05-05T04:13:29.423Z,38.82
2023-05-05T04:14:29.478Z,38.86
2023-05-05T04:15:29.462Z,38.83
2023-05-05T04:16:29.645Z,38.83
2023-05-05T04:17:29.535Z,38.79
2023-05-05T04:18:29.558Z,38.86
2023-05-05T04:19:29.554Z,38.90
2023-05-05T04:20:29.572Z,38.86
2023-05-05T04:21:29.627Z,38.82
2023-05-05T04:22:29.645Z,38.86
2023-05-05T04:23:29.661Z,38.87
2023-05-05T04:24:29.714Z,38.86
2023-05-05T04:25:29.751Z,38.87
2023-05-05T04:26:29.754Z,38.90
2023-05-05T04:27:29.786Z,38.85
2023-05-05T04:28:29.838Z,38.89
2023-05-05T04:29:29.840Z,38.87
2023-05-05T04:30:29.886Z,38.86
2023-05-05T04:31:29.926Z,38.87
2023-05-05T04:32:29.975Z,38.83
2023-05-05T04:33:29.929Z,38.83
2023-05-05T04:34:29.970Z,38.82
2023-05-05T04:35:30.050Z,38.83
2023-05-05T04:36:30.029Z,38.89
2023-05-05T04:37:30.076Z,38.86
2023-05-05T04:38:30.159Z,38.86
2023-05-05T04:39:30.152Z,38.86
2023-05-05T04:40:30.166Z,38.86
2023-05-05T04:41:30.264Z,38.84
2023-05-05T04:42:30.234Z,38.87
2023-05-05T04:43:30.244Z,38.84
2023-05-05T04:44:30.295Z,38.87
2023-05-05T04:45:30.300Z,38.83
2023-05-05T04:46:30.353Z,38.89
2023-05-05T04:47:30.351Z,38.88
2023-05-05T04:48:30.373Z,38.83
2023-05-05T04:49:30.408Z,38.90
2023-05-05T04:50:30.417Z,38.93
2023-05-05T04:51:30.435Z,38.91
2023-05-05T04:52:30.480Z,38.91
2023-05-05T04:53:30.495Z,38.91
2023-05-05T04:54:30.554Z,38.91
2023-05-05T04:55:30.563Z,38.87
2023-05-05T04:56:30.568Z,38.89
2023-05-05T04:57:30.620Z,39.43
2023-05-05T04:58:30.658Z,39.12
2023-05-05T04:59:30.675Z,39.23
2023-05-05T05:00:30.691Z,39.42
2023-05-05T05:01:30.753Z,39.41
2023-05-05T05:02:30.787Z,39.45
2023-05-05T05:03:30.882Z,39.51
2023-05-05T05:04:30.838Z,39.49
2023-05-05T05:05:30.847Z,39.55
2023-05-05T05:06:30.893Z,39.59
2023-05-05T05:07:30.914Z,39.62
2023-05-05T05:08:30.956Z,39.65
2023-05-05T05:09:30.987Z,39.56
2023-05-05T05:10:31.047Z,39.56
2023-05-05T05:11:31.067Z,39.63
2023-05-05T05:12:31.135Z,39.63
2023-05-05T05:13:31.175Z,39.63
2023-05-05T05:14:31.164Z,39.66
2023-05-05T05:15:31.187Z,39.77
2023-05-05T05:16:31.247Z,39.67
2023-05-05T05:17:31.307Z,39.73
2023-05-05T05:18:31.319Z,39.66
2023-05-05T05:19:31.333Z,39.70
2023-05-05T05:20:31.401Z,39.61
2023-05-05T05:21:31.425Z,39.63
2023-05-05T05:22:31.462Z,39.63
2023-05-05T05:23:31.500Z,39.61
2023-05-05T05:24:31.591Z,39.63
2023-05-05T05:25:31.602Z,39.71
2023-05-05T05:26:31.636Z,39.58
2023-05-05T05:27:31.706Z,39.63
2023-05-05T05:28:31.942Z,39.67
2023-05-05T05:29:31.754Z,39.63
2023-05-05T05:30:31.814Z,39.76
2023-05-05T05:31:31.922Z,39.72
2023-05-05T05:32:31.938Z,39.70
2023-05-05T05:33:32.433Z,39.66
2023-05-05T05:34:31.998Z,39.77
2023-05-05T05:35:32.065Z,39.70
2023-05-05T05:36:32.078Z,39.70
2023-05-05T05:37:32.145Z,39.66
2023-05-05T05:38:32.432Z,39.73
2023-05-05T05:39:32.243Z,39.63
2023-05-05T05:40:32.304Z,39.69
2023-05-05T05:41:32.390Z,39.66
2023-05-05T05:42:32.699Z,39.62
2023-05-05T05:43:32.472Z,39.68
2023-05-05T05:44:32.498Z,39.66
2023-05-05T05:45:32.524Z,39.78
2023-05-05T05:46:32.684Z,40.00
2023-05-05T05:47:32.664Z,39.93
2023-05-05T05:48:32.656Z,39.87
2023-05-05T05:49:32.711Z,40.43
2023-05-05T05:50:32.742Z,40.73
2023-05-05T05:51:32.778Z,40.30
2023-05-05T05:52:32.811Z,40.79
2023-05-05T05:53:32.871Z,40.12
2023-05-05T05:54:32.872Z,41.08
2023-05-05T05:55:32.904Z,40.89
2023-05-05T05:56:32.906Z,41.35
2023-05-05T05:57:33.448Z,41.72
2023-05-05T05:58:32.972Z,41.32
2023-05-05T05:59:32.908Z,41.67
2023-05-05T06:00:32.905Z,41.43
2023-05-05T06:01:32.890Z,41.27
2023-05-05T06:02:32.998Z,40.91
2023-05-05T06:03:33.088Z,41.14
2023-05-05T06:04:33.083Z,40.91
2023-05-05T06:05:33.101Z,40.64
2023-05-05T06:06:33.132Z,40.72
2023-05-05T06:07:33.278Z,40.77
2023-05-05T06:08:33.953Z,40.87
2023-05-05T06:09:33.238Z,41.34
2023-05-05T06:10:33.775Z,41.17
2023-05-05T06:11:33.324Z,41.07
2023-05-05T06:12:33.411Z,40.96
2023-05-05T06:13:33.383Z,41.03
2023-05-05T06:14:33.438Z,41.10
2023-05-05T06:15:33.404Z,41.21
2023-05-05T06:16:33.496Z,41.12
2023-05-05T06:17:33.400Z,41.30
2023-05-05T06:18:33.407Z,41.34
2023-05-05T06:19:33.402Z,41.47
2023-05-05T06:20:33.397Z,41.57
2023-05-05T06:21:33.378Z,41.46
2023-05-05T06:22:33.406Z,41.53
2023-05-05T06:23:33.376Z,41.61
2023-05-05T06:24:33.443Z,41.72
2023-05-05T06:25:33.434Z,41.79
2023-05-05T06:26:33.359Z,41.66
2023-05-05T06:27:33.402Z,42.45
2023-05-05T06:28:33.390Z,42.06
2023-05-05T06:29:33.401Z,42.07
2023-05-05T06:30:33.465Z,42.05
2023-05-05T06:31:33.492Z,42.27
2023-05-05T06:32:33.610Z,42.39
2023-05-05T06:33:33.551Z,42.48
2023-05-05T06:34:33.628Z,42.47
2023-05-05T06:35:33.640Z,42.44
2023-05-05T06:36:33.745Z,42.50
2023-05-05T06:37:33.738Z,42.52
2023-05-05T06:38:33.751Z,42.36
2023-05-05T06:39:33.800Z,42.70
2023-05-05T06:40:33.861Z,42.72
2023-05-05T06:41:33.933Z,42.78
2023-05-05T06:42:34.017Z,42.81
2023-05-05T06:43:34.057Z,42.91
2023-05-05T06:44:34.144Z,42.87
2023-05-05T06:45:34.175Z,42.90
2023-05-05T06:46:34.240Z,43.01
2023-05-05T06:47:34.318Z,42.82
2023-05-05T06:48:34.539Z,43.08
2023-05-05T06:49:34.379Z,43.13
2023-05-05T06:50:34.459Z,43.17
2023-05-05T06:51:34.472Z,43.83
2023-05-05T06:52:34.539Z,44.81
2023-05-05T06:53:34.598Z,43.37
2023-05-05T06:54:34.646Z,43.12
2023-05-05T06:55:34.686Z,43.04
2023-05-05T06:56:34.742Z,42.72
2023-05-05T06:57:34.769Z,42.65
2023-05-05T06:58:35.062Z,42.61
2023-05-05T06:59:34.911Z,42.58
2023-05-05T07:00:34.993Z,42.63
2023-05-05T07:01:35.018Z,42.57
2023-05-05T07:02:35.119Z,42.56
2023-05-05T07:03:35.519Z,42.60
2023-05-05T07:04:35.205Z,42.58
2023-05-05T07:05:35.272Z,42.62
2023-05-05T07:06:35.299Z,42.62
2023-05-05T07:07:35.309Z,42.69
2023-05-05T07:08:35.376Z,42.70
2023-05-05T07:09:35.452Z,42.69
2023-05-05T07:10:35.475Z,42.71
2023-05-05T07:11:35.530Z,42.72
2023-05-05T07:12:35.592Z,42.73
2023-05-05T07:13:36.026Z,42.80
2023-05-05T07:14:35.749Z,42.82
2023-05-05T07:15:35.642Z,42.78
2023-05-05T07:16:35.663Z,42.87
2023-05-05T07:17:35.646Z,42.84
2023-05-05T07:18:35.646Z,42.85
2023-05-05T07:19:35.633Z,42.92
2023-05-05T07:20:35.625Z,42.88
2023-05-05T07:21:35.602Z,42.87
2023-05-05T07:22:35.639Z,42.90
2023-05-05T07:23:35.651Z,42.86
2023-05-05T07:24:35.654Z,42.92
2023-05-05T07:25:36.434Z,42.98
2023-05-05T07:26:35.628Z,42.95
2023-05-05T07:27:35.628Z,42.98
2023-05-05T07:28:35.680Z,42.96
2023-05-05T07:29:35.657Z,42.99
2023-05-05T07:30:35.987Z,42.95
2023-05-05T07:31:35.685Z,42.94
2023-05-05T07:32:35.687Z,42.94
2023-05-05T07:33:35.688Z,42.97
2023-05-05T07:34:35.732Z,42.93
2023-05-05T07:35:35.688Z,42.88
2023-05-05T07:36:35.738Z,42.92
2023-05-05T07:37:35.740Z,42.92
2023-05-05T07:38:36.040Z,42.94
2023-05-05T07:39:35.769Z,42.88
2023-05-05T07:40:35.773Z,42.92
2023-05-05T07:41:35.795Z,42.92
2023-05-05T07:42:35.829Z,42.90
2023-05-05T07:43:35.847Z,42.90
2023-05-05T07:44:35.905Z,42.92
2023-05-05T07:45:35.876Z,42.90
2023-05-05T07:46:35.941Z,42.87
2023-05-05T07:47:35.948Z,42.91
2023-05-05T07:48:35.943Z,42.88
2023-05-05T07:49:35.937Z,42.88
2023-05-05T07:50:35.967Z,42.84
2023-05-05T07:51:35.981Z,43.16
2023-05-05T07:52:46.651Z,43.06
2023-05-05T07:53:37.028Z,42.77
2023-05-05T07:54:36.037Z,42.53
2023-05-05T07:55:35.971Z,42.40
2023-05-05T07:56:36.006Z,42.10
2023-05-05T07:57:35.951Z,42.41
2023-05-05T07:58:35.965Z,42.29
2023-05-05T07:59:35.960Z,42.27
2023-05-05T08:00:35.963Z,42.30
2023-05-05T08:01:35.942Z,42.30
2023-05-05T08:02:36.046Z,42.34
2023-05-05T08:03:36.052Z,42.34
2023-05-05T08:04:36.094Z,42.43
2023-05-05T08:05:35.936Z,42.44
2023-05-05T08:06:35.945Z,42.49
2023-05-05T08:07:35.890Z,42.52
2023-05-05T08:08:35.904Z,42.60
2023-05-05T08:09:35.909Z,42.68
2023-05-05T08:10:35.871Z,42.75
2023-05-05T08:11:35.878Z,42.80
2023-05-05T08:12:36.022Z,42.88
2023-05-05T08:13:36.002Z,42.93
2023-05-05T08:14:36.058Z,42.93
2023-05-05T08:15:36.125Z,42.96
2023-05-05T08:16:36.301Z,43.04
2023-05-05T08:17:36.253Z,43.07
2023-05-05T08:18:36.332Z,43.13
2023-05-05T08:19:36.312Z,43.09
2023-05-05T08:20:36.364Z,43.25
2023-05-05T08:21:36.421Z,43.14
2023-05-05T08:22:36.468Z,43.24
2023-05-05T08:23:36.512Z,43.32
2023-05-05T08:24:36.539Z,43.33
2023-05-05T08:25:36.561Z,43.26
2023-05-05T08:26:36.597Z,43.26
2023-05-05T08:27:36.645Z,43.39
2023-05-05T08:28:36.675Z,43.37
2023-05-05T08:29:37.061Z,43.47
2023-05-05T08:30:36.700Z,43.50
2023-05-05T08:31:36.748Z,43.56
2023-05-05T08:32:36.759Z,43.41
2023-05-05T08:33:36.764Z,42.50
2023-05-05T08:34:37.106Z,42.17
2023-05-05T08:35:36.821Z,42.25
2023-05-05T08:36:36.880Z,41.79
2023-05-05T08:37:36.840Z,41.63
2023-05-05T08:38:37.843Z,40.88
2023-05-05T08:39:36.835Z,41.54
2023-05-05T08:40:36.841Z,41.45
2023-05-05T08:41:36.826Z,41.34
2023-05-05T08:42:38.494Z,41.05
2023-05-05T08:43:36.826Z,41.60
2023-05-05T08:44:36.800Z,41.42
2023-05-05T08:45:36.786Z,41.67
2023-05-05T08:46:36.839Z,41.47
2023-05-05T08:47:36.851Z,41.24
2023-05-05T08:48:36.756Z,41.51
2023-05-05T08:49:36.745Z,41.59
2023-05-05T08:50:36.887Z,41.29
2023-05-05T08:51:36.740Z,41.60
2023-05-05T08:52:36.808Z,41.63
2023-05-05T08:53:36.785Z,41.68
2023-05-05T08:54:37.062Z,41.64
2023-05-05T08:55:36.834Z,41.86
2023-05-05T08:56:36.875Z,41.66
2023-05-05T08:57:36.919Z,41.33
2023-05-05T08:58:36.932Z,40.86
2023-05-05T08:59:36.983Z,41.23
2023-05-05T09:00:36.993Z,41.34
2023-05-05T09:01:37.177Z,41.17
2023-05-05T09:02:37.116Z,40.84
2023-05-05T09:03:37.085Z,40.92
2023-05-05T09:04:37.590Z,39.87
2023-05-05T09:05:37.167Z,40.40
2023-05-05T09:06:37.305Z,40.62
2023-05-05T09:07:37.178Z,40.66
2023-05-05T09:08:37.234Z,40.71
2023-05-05T09:09:37.237Z,39.44
2023-05-05T09:10:37.257Z,39.81
2023-05-05T09:11:37.263Z,39.99
2023-05-05T09:12:37.344Z,40.33
2023-05-05T09:13:37.334Z,40.43
2023-05-05T09:14:37.583Z,40.26
2023-05-05T09:15:37.370Z,40.25
2023-05-05T09:16:37.405Z,40.38
2023-05-05T09:17:37.423Z,40.36
2023-05-05T09:18:37.438Z,39.54
2023-05-05T09:19:37.445Z,39.88
2023-05-05T09:20:37.481Z,40.02
2023-05-05T09:21:37.493Z,39.79
2023-05-05T09:22:37.611Z,39.77
2023-05-05T09:23:37.544Z,39.56
2023-05-05T09:24:37.648Z,39.38
2023-05-05T09:25:37.571Z,39.39
2023-05-05T09:26:37.594Z,39.07
2023-05-05T09:27:37.615Z,39.26
2023-05-05T09:28:37.606Z,39.23
2023-05-05T09:29:37.618Z,39.36
2023-05-05T09:30:37.710Z,38.77
2023-05-05T09:31:37.673Z,38.76
2023-05-05T09:32:37.700Z,39.15
2023-05-05T09:33:37.670Z,39.21
2023-05-05T09:34:38.118Z,38.80
2023-05-05T09:35:37.690Z,38.82
2023-05-05T09:36:37.665Z,38.76
2023-05-05T09:37:37.695Z,38.82
2023-05-05T09:38:37.743Z,38.14
2023-05-05T09:39:38.076Z,38.14
2023-05-05T09:40:37.701Z,38.67
2023-05-05T09:41:37.731Z,38.78
2023-05-05T09:42:37.672Z,37.93
2023-05-05T09:43:37.685Z,38.34
2023-05-05T09:44:38.114Z,38.10
2023-05-05T09:45:37.699Z,37.89
2023-05-05T09:46:37.778Z,38.84
2023-05-05T09:47:37.810Z,38.95
2023-05-05T09:48:37.710Z,39.04
2023-05-05T09:49:38.121Z,39.06
2023-05-05T09:50:37.731Z,39.11
2023-05-05T09:51:37.785Z,39.12
2023-05-05T09:52:37.748Z,39.13
2023-05-05T09:53:37.707Z,39.10
2023-05-05T09:54:37.726Z,39.15
2023-05-05T09:55:37.736Z,39.14
2023-05-05T09:56:37.769Z,39.18
2023-05-05T09:57:37.757Z,39.21
2023-05-05T09:58:37.846Z,39.17
2023-05-05T09:59:37.855Z,39.23
2023-05-05T10:00:37.816Z,39.24
2023-05-05T10:01:37.927Z,39.24
2023-05-05T10:02:37.974Z,39.26
2023-05-05T10:03:37.934Z,39.25
2023-05-05T10:04:37.970Z,39.27
2023-05-05T10:05:38.012Z,39.29
2023-05-05T10:06:38.039Z,39.36
2023-05-05T10:07:38.062Z,39.33
2023-05-05T10:08:38.122Z,39.36
2023-05-05T10:09:38.130Z,39.37
2023-05-05T10:10:38.245Z,39.38
2023-05-05T10:11:38.200Z,39.38
2023-05-05T10:12:38.344Z,39.41
2023-05-05T10:13:38.310Z,39.41
2023-05-05T10:14:38.598Z,39.36
2023-05-05T10:15:38.413Z,39.39
2023-05-05T10:16:38.512Z,39.40
2023-05-05T10:17:38.524Z,39.35
2023-05-05T10:18:38.626Z,39.38
2023-05-05T10:19:39.108Z,39.41
2023-05-05T10:20:38.751Z,39.44
2023-05-05T10:21:40.885Z,39.42
2023-05-05T10:22:38.712Z,39.41
2023-05-05T10:23:38.709Z,39.44
2023-05-05T10:24:38.718Z,39.45
2023-05-05T10:25:38.668Z,39.43
2023-05-05T10:26:38.788Z,39.45
2023-05-05T10:27:38.664Z,39.48
2023-05-05T10:28:38.670Z,39.47
2023-05-05T10:29:39.138Z,39.48
2023-05-05T10:30:38.668Z,39.46
2023-05-05T10:31:38.722Z,39.49
2023-05-05T10:33:38.757Z,39.47
2023-05-05T10:34:39.151Z,39.50
2023-05-05T10:35:38.616Z,39.47
2023-05-05T10:36:38.629Z,39.44
2023-05-05T10:37:38.637Z,39.50
2023-05-05T10:38:38.597Z,39.51
2023-05-05T10:39:38.608Z,39.47
2023-05-05T10:40:38.568Z,39.45
2023-05-05T10:41:38.612Z,39.49
2023-05-05T10:42:38.635Z,39.49
2023-05-05T10:43:38.574Z,39.43
2023-05-05T10:44:38.636Z,39.36
2023-05-05T10:45:38.718Z,39.48
2023-05-05T10:46:38.660Z,39.48
2023-05-05T10:47:38.576Z,39.46
2023-05-05T10:48:38.609Z,39.53
2023-05-05T10:49:38.626Z,39.50
2023-05-05T10:50:38.546Z,39.49
2023-05-05T10:52:38.548Z,39.49
2023-05-05T10:53:38.539Z,39.50
2023-05-05T10:54:38.708Z,39.52
2023-05-05T10:55:38.461Z,39.53
2023-05-05T10:56:38.482Z,39.49
2023-05-05T10:57:38.480Z,39.51
2023-05-05T10:58:55.632Z,39.51
2023-05-05T10:59:39.650Z,39.53
2023-05-05T11:00:38.440Z,39.54
2023-05-05T11:01:38.533Z,39.53
2023-05-05T11:02:38.481Z,39.51
2023-05-05T11:03:38.474Z,39.53
2023-05-05T11:04:38.412Z,39.54
2023-05-05T11:05:38.388Z,39.56
2023-05-05T11:06:38.396Z,39.54
2023-05-05T11:07:38.369Z,39.50
2023-05-05T11:08:38.404Z,39.51
2023-05-05T11:09:38.391Z,39.53
2023-05-05T11:10:38.352Z,39.51
2023-05-05T11:11:38.401Z,39.55
2023-05-05T11:12:39.063Z,39.54
2023-05-05T11:13:38.455Z,39.51
2023-05-05T11:14:38.605Z,39.54
2023-05-05T11:15:38.504Z,39.56
2023-05-05T11:16:38.619Z,39.54
2023-05-05T11:17:38.600Z,39.55
2023-05-05T11:18:38.656Z,39.54
2023-05-05T11:19:38.641Z,39.57
2023-05-05T11:20:38.649Z,39.60
2023-05-05T11:21:38.689Z,39.60
2023-05-05T11:22:38.716Z,39.58
2023-05-05T11:23:38.750Z,39.57
2023-05-05T11:24:39.173Z,39.64
2023-05-05T11:25:38.803Z,39.61
2023-05-05T11:26:38.845Z,39.64
2023-05-05T11:27:38.856Z,39.64
2023-05-05T11:28:38.889Z,39.65
2023-05-05T11:29:38.901Z,39.65
2023-05-05T11:30:39.049Z,39.66
2023-05-05T11:31:39.103Z,39.66
2023-05-05T11:32:38.999Z,39.69
2023-05-05T11:33:39.045Z,39.63
2023-05-05T11:34:39.068Z,39.67
2023-05-05T11:35:39.086Z,39.70
2023-05-05T11:36:39.157Z,39.71
2023-05-05T11:37:39.159Z,39.69
2023-05-05T11:38:39.243Z,39.74
2023-05-05T11:39:39.369Z,39.71
2023-05-05T11:40:39.289Z,39.63
2023-05-05T11:41:39.327Z,39.68
2023-05-05T11:42:39.354Z,39.68
2023-05-05T11:43:39.414Z,39.66
2023-05-05T11:44:39.465Z,39.65
2023-05-05T11:45:39.490Z,39.65
2023-05-05T11:46:39.746Z,39.66
2023-05-05T11:47:39.639Z,39.65
2023-05-05T11:48:39.649Z,39.65
2023-05-05T11:49:39.692Z,39.62
2023-05-05T11:50:39.727Z,39.63
2023-05-05T11:51:39.737Z,39.65
2023-05-05T11:52:39.773Z,39.63
2023-05-05T11:53:39.765Z,39.59
2023-05-05T11:54:40.191Z,39.62
2023-05-05T11:55:39.875Z,39.63
2023-05-05T11:56:39.870Z,39.62
2023-05-05T11:57:39.950Z,39.62
2023-05-05T11:58:39.957Z,39.62
2023-05-05T11:59:39.972Z,39.65
2023-05-05T12:00:40.178Z,39.60
2023-05-05T12:01:40.082Z,39.70
2023-05-05T12:02:40.228Z,39.69
2023-05-05T12:03:40.293Z,39.66
2023-05-05T12:04:40.196Z,39.60
2023-05-05T12:05:40.681Z,39.65
2023-05-05T12:06:40.209Z,39.66
2023-05-05T12:07:40.259Z,39.63
2023-05-05T12:08:40.311Z,39.63
2023-05-05T12:09:40.289Z,39.63
2023-05-05T12:10:40.685Z,39.66
2023-05-05T12:11:40.370Z,39.69
2023-05-05T12:12:40.470Z,39.69
2023-05-05T12:13:40.400Z,39.68
2023-05-05T12:14:40.452Z,39.66
2023-05-05T12:15:40.681Z,39.68
2023-05-05T12:16:40.576Z,39.69
2023-05-05T12:17:40.580Z,39.71
2023-05-05T12:18:40.537Z,39.69
2023-05-05T12:19:40.588Z,39.70
2023-05-05T12:20:40.678Z,39.72
2023-05-05T12:21:40.662Z,39.85
2023-05-05T12:22:40.679Z,39.79
2023-05-05T12:23:40.664Z,39.82
2023-05-05T12:24:40.725Z,39.81
2023-05-05T12:25:41.192Z,39.81
2023-05-05T12:26:40.809Z,39.81
2023-05-05T12:27:40.831Z,39.81
2023-05-05T12:28:40.838Z,39.76
2023-05-05T12:29:40.891Z,39.78
2023-05-05T12:30:41.222Z,39.78
2023-05-05T12:31:40.936Z,39.82
2023-05-05T12:32:41.057Z,39.77
2023-05-05T12:33:41.006Z,39.80
2023-05-05T12:34:41.106Z,39.80
2023-05-05T12:35:41.192Z,39.85
2023-05-05T12:36:41.099Z,39.79
2023-05-05T12:37:41.106Z,39.86
2023-05-05T12:38:41.158Z,39.83
2023-05-05T12:39:41.223Z,39.79
2023-05-05T12:40:41.727Z,39.83
2023-05-05T12:41:41.275Z,39.83
2023-05-05T12:42:41.379Z,39.80
2023-05-05T12:43:41.351Z,39.82
2023-05-05T12:44:41.390Z,39.85
2023-05-05T12:45:41.809Z,39.85
2023-05-05T12:46:41.476Z,39.84
2023-05-05T12:47:41.561Z,39.84
2023-05-05T12:48:41.571Z,39.83
2023-05-05T12:49:41.617Z,39.86
2023-05-05T12:50:41.717Z,39.86
2023-05-05T12:51:41.688Z,39.86
2023-05-05T12:52:41.726Z,39.85
2023-05-05T12:53:41.779Z,39.80
2023-05-05T12:54:41.782Z,39.86